| time (UTC) | temp F | wind direction | speed knots | gust knots | rain 1hr in | rain 24hr in | rain mn in | humidity % | barometer mb |
| 20260506025409 | 43 | 219 | 0.0 | 0.0 | 0.00 | 0.01 | 0.00 | 90 | 1008.5 |
| 20260506024908 | 43 | 219 | 0.0 | 0.0 | 0.00 | 0.01 | 0.00 | 90 | 1008.4 |
| 20260506024843 | 43 | 219 | 0.0 | 0.0 | 0.00 | 0.01 | 0.00 | 90 | 1008.4 |
| 20260506023914 | 44 | 219 | 0.0 | 0.0 | 0.00 | 0.01 | 0.00 | 89 | 1008.5 |
| 20260506023901 | 44 | 219 | 0.0 | 0.0 | 0.00 | 0.01 | 0.00 | 89 | 1008.4 |
| 20260506022910 | 45 | 219 | 0.0 | 0.0 | 0.00 | 0.01 | 0.00 | 89 | 1008.4 |
| 20260506022412 | 45 | 219 | 0.0 | 0.9 | 0.00 | 0.01 | 0.00 | 89 | 1008.5 |
| 20260506021908 | 46 | 219 | 0.0 | 0.9 | 0.00 | 0.01 | 0.00 | 90 | 1008.4 |
| 20260506021410 | 46 | 219 | 0.0 | 0.0 | 0.00 | 0.01 | 0.00 | 90 | 1008.4 |
| 20260506021335 | 46 | 219 | 0.0 | 0.0 | 0.00 | 0.01 | 0.00 | 90 | 1008.4 |
| 20260506020857 | 46 | 219 | 0.0 | 0.9 | 0.00 | 0.01 | 0.00 | 90 | 1008.4 |
| 20260506015857 | 47 | 219 | 0.0 | 0.9 | 0.00 | 0.01 | 0.00 | 90 | 1008.5 |
| 20260506015355 | 47 | 219 | 0.0 | 0.0 | 0.00 | 0.01 | 0.00 | 90 | 1008.5 |
| 20260506014853 | 47 | 219 | 0.0 | 0.0 | 0.00 | 0.01 | 0.00 | 89 | 1008.6 |
| 20260506014353 | 47 | 219 | 0.0 | 0.0 | 0.00 | 0.01 | 0.00 | 89 | 1008.7 |
| 20260506013853 | 47 | 219 | 0.0 | 0.0 | 0.00 | 0.01 | 0.00 | 89 | 1008.7 |
| 20260506013353 | 48 | 219 | 0.0 | 0.9 | 0.00 | 0.01 | 0.00 | 89 | 1008.7 |
| 20260506012854 | 48 | 219 | 0.0 | 0.9 | 0.00 | 0.01 | 0.00 | 89 | 1008.7 |
| 20260506012352 | 48 | 219 | 0.0 | 0.0 | 0.00 | 0.01 | 0.00 | 88 | 1008.8 |
| 20260506011853 | 48 | 219 | 0.0 | 0.0 | 0.00 | 0.01 | 0.00 | 87 | 1008.8 |
| 20260506011350 | 49 | 219 | 0.0 | 0.0 | 0.00 | 0.01 | 0.00 | 86 | 1008.7 |
| 20260506010854 | 50 | 0 | 0.0 | 0.0 | 0.00 | 0.01 | 0.00 | 87 | 1008.6 |
| 20260506010351 | 50 | 220 | 0.0 | 0.9 | 0.00 | 0.01 | 0.00 | 87 | 1008.6 |
| 20260506005853 | 51 | 220 | 0.0 | 1.7 | 0.00 | 0.01 | 0.00 | 87 | 1008.7 |
| 20260506005349 | 51 | 220 | 0.0 | 1.7 | 0.00 | 0.01 | 0.00 | 88 | 1008.7 |
| 20260506004852 | 51 | 220 | 0.0 | 0.9 | 0.00 | 0.01 | 0.00 | 88 | 1008.7 |
| 20260506004346 | 51 | 220 | 0.0 | 1.7 | 0.00 | 0.01 | 0.00 | 88 | 1008.7 |
| 20260506003849 | 51 | 220 | 0.0 | 1.7 | 0.00 | 0.01 | 0.00 | 88 | 1008.7 |
| 20260506003347 | 51 | 220 | 0.9 | 1.7 | 0.00 | 0.01 | 0.00 | 88 | 1008.8 |
| 20260506002847 | 52 | 220 | 0.9 | 1.7 | 0.00 | 0.01 | 0.00 | 88 | 1008.9 |
| 20260506002816 | 52 | 220 | 0.9 | 1.7 | 0.00 | 0.01 | 0.00 | 88 | 1008.9 |
| 20260506002344 | 52 | 220 | 0.0 | 1.7 | 0.00 | 0.01 | 0.00 | 88 | 1008.8 |
| 20260506001347 | 52 | 220 | 0.9 | 1.7 | 0.00 | 0.01 | 0.00 | 88 | 1008.9 |
| 20260506000845 | 52 | 220 | 0.9 | 2.6 | 0.00 | 0.01 | 0.00 | 88 | 1008.9 |
| 20260506000411 | 52 | 221 | 1.7 | 2.6 | 0.00 | 0.01 | 0.00 | 88 | 1008.9 |
| 20260506000354 | 52 | 220 | 0.9 | 2.6 | 0.00 | 0.01 | 0.00 | 88 | 1008.9 |
| 20260505235811 | 53 | 237 | 0.0 | 0.9 | 0.00 | 0.01 | 0.00 | 88 | 1009.0 |
| 20260505234840 | 53 | 237 | 0.0 | 0.9 | 0.00 | 0.01 | 0.00 | 88 | 1009.0 |
| 20260505234339 | 53 | 237 | 0.0 | 4.3 | 0.00 | 0.01 | 0.00 | 88 | 1009.0 |
| 20260505233839 | 53 | 237 | 0.9 | 4.3 | 0.00 | 0.01 | 0.00 | 89 | 1009.0 |
| 20260505233343 | 53 | 237 | 0.9 | 2.6 | 0.00 | 0.01 | 0.00 | 89 | 1009.1 |
| 20260505232846 | 53 | 237 | 0.0 | 1.7 | 0.00 | 0.01 | 0.00 | 89 | 1009.1 |
| 20260505232341 | 53 | 237 | 0.9 | 2.6 | 0.00 | 0.01 | 0.00 | 88 | 1009.2 |
| 20260505231840 | 53 | 237 | 0.9 | 2.6 | 0.00 | 0.01 | 0.00 | 88 | 1009.2 |
| 20260505231338 | 53 | 237 | 0.0 | 0.9 | 0.00 | 0.01 | 0.00 | 88 | 1009.1 |
| 20260505230837 | 54 | 237 | 0.0 | 0.9 | 0.00 | 0.01 | 0.00 | 88 | 1009.2 |
| 20260505230355 | 54 | 237 | 0.0 | 0.0 | 0.00 | 0.01 | 0.00 | 88 | 1009.2 |
| 20260505225844 | 54 | 237 | 0.0 | 0.9 | 0.00 | 0.01 | 0.00 | 88 | 1009.2 |
| 20260505225352 | 54 | 234 | 0.0 | 1.7 | 0.00 | 0.01 | 0.00 | 88 | 1009.2 |
| 20260505224901 | 55 | 234 | 0.9 | 1.7 | 0.00 | 0.01 | 0.00 | 87 | 1009.3 |
| 20260505224357 | 55 | 235 | 0.9 | 1.7 | 0.00 | 0.01 | 0.00 | 86 | 1009.3 |
| 20260505223858 | 55 | 235 | 0.0 | 0.9 | 0.00 | 0.01 | 0.00 | 85 | 1009.0 |
| 20260505223659 | 56 | 235 | 0.0 | 1.7 | 0.00 | 0.01 | 0.00 | 83 | 1008.9 |
| 20260505223431 | 56 | 235 | 0.0 | 0.9 | 0.00 | 0.01 | 0.00 | 84 | 1008.9 |
| 20260505222914 | 56 | 235 | 0.0 | 0.9 | 0.00 | 0.01 | 0.00 | 83 | 1008.8 |
| 20260505222247 | 56 | 235 | 0.9 | 4.3 | 0.00 | 0.01 | 0.00 | 82 | 1009.0 |
| 20260505221931 | 56 | 235 | 0.9 | 2.6 | 0.00 | 0.01 | 0.00 | 83 | 1008.8 |
| 20260505220834 | 57 | 234 | 0.0 | 7.8 | 0.00 | 0.01 | 0.00 | 82 | 1009.1 |
| 20260505220402 | 57 | 237 | 3.5 | 7.8 | 0.00 | 0.01 | 0.00 | 82 | 1009.1 |
| 20260505215854 | 56 | 230 | 1.7 | 6.1 | 0.00 | 0.01 | 0.01 | 81 | 1009.0 |
| 20260505215353 | 57 | 245 | 3.5 | 6.1 | 0.00 | 0.01 | 0.01 | 81 | 1009.1 |
| 20260505214855 | 56 | 228 | 2.6 | 6.1 | 0.00 | 0.01 | 0.01 | 82 | 1009.1 |
| 20260505214543 | 56 | 204 | 0.9 | 2.6 | 0.00 | 0.01 | 0.01 | 82 | 1009.0 |
| 20260505213858 | 56 | 204 | 0.9 | 4.3 | 0.00 | 0.01 | 0.01 | 82 | 1009.1 |
| 20260505212926 | 56 | 264 | 1.7 | 6.1 | 0.00 | 0.01 | 0.01 | 83 | 1008.9 |
| 20260505212839 | 56 | 264 | 1.7 | 7.0 | 0.00 | 0.01 | 0.01 | 82 | 1009.0 |
| 20260505212409 | 56 | 266 | 4.3 | 7.0 | 0.00 | 0.01 | 0.01 | 82 | 1009.0 |
| 20260505211903 | 56 | 268 | 2.6 | 6.1 | 0.00 | 0.01 | 0.01 | 82 | 1009.0 |
| 20260505211418 | 56 | 261 | 2.6 | 6.1 | 0.00 | 0.01 | 0.01 | 82 | 1008.9 |
| 20260505210427 | 56 | 259 | 2.6 | 7.0 | 0.00 | 0.01 | 0.01 | 84 | 1009.0 |
| 20260505205846 | 56 | 224 | 2.6 | 7.0 | 0.00 | 0.01 | 0.01 | 84 | 1008.9 |
| 20260505205349 | 56 | 226 | 3.5 | 6.1 | 0.00 | 0.01 | 0.01 | 84 | 1008.9 |
| 20260505204844 | 56 | 238 | 0.9 | 5.2 | 0.00 | 0.01 | 0.01 | 84 | 1008.8 |
| 20260505204326 | 56 | 244 | 1.7 | 6.1 | 0.00 | 0.01 | 0.01 | 84 | 1008.7 |
| 20260505203832 | 56 | 231 | 0.9 | 6.1 | 0.00 | 0.01 | 0.01 | 85 | 1008.6 |
| 20260505203333 | 53 | 276 | 0.9 | 2.6 | 0.00 | 0.01 | 0.01 | 88 | 1007.6 |
| 20260505203325 | 56 | 233 | 1.7 | 4.3 | 0.00 | 0.01 | 0.01 | 85 | 1008.4 |
| 20260505202849 | 56 | 216 | 0.9 | 4.3 | 0.00 | 0.01 | 0.01 | 85 | 1008.4 |
| 20260505202509 | 56 | 233 | 0.9 | 4.3 | 0.00 | 0.01 | 0.01 | 86 | 1008.3 |
| 20260505201853 | 56 | 241 | 1.7 | 4.3 | 0.00 | 0.01 | 0.01 | 87 | 1008.2 |
| 20260505201344 | 55 | 268 | 0.9 | 6.1 | 0.00 | 0.01 | 0.01 | 88 | 1008.1 |
| 20260505200847 | 55 | 240 | 4.3 | 6.1 | 0.00 | 0.01 | 0.01 | 89 | 1008.2 |
| 20260505200411 | 54 | 250 | 2.6 | 5.2 | 0.00 | 0.01 | 0.01 | 89 | 1007.8 |
| 20260505195907 | 54 | 258 | 0.9 | 2.6 | 0.00 | 0.01 | 0.01 | 88 | 1007.7 |
| 20260505194317 | 53 | 38 | 0.9 | 1.7 | 0.00 | 0.01 | 0.01 | 86 | 1007.4 |
| 20260505193828 | 54 | 45 | 0.0 | 2.6 | 0.00 | 0.01 | 0.01 | 86 | 1007.1 |
| 20260505193316 | 54 | 45 | 0.0 | 2.6 | 0.00 | 0.01 | 0.01 | 85 | 1007.1 |
| 20260505192816 | 54 | 45 | 2.6 | 2.6 | 0.00 | 0.01 | 0.01 | 85 | 1007.1 |
| 20260505192323 | 55 | 290 | 0.0 | 2.6 | 0.00 | 0.01 | 0.01 | 86 | 1007.2 |
| 20260505192255 | 55 | 288 | 1.7 | 1.7 | 0.00 | 0.01 | 0.01 | 85 | 1007.1 |
| 20260505191318 | 55 | 286 | 0.0 | 2.6 | 0.00 | 0.01 | 0.01 | 85 | 1007.2 |
| 20260505190843 | 56 | 285 | 0.9 | 4.3 | 0.00 | 0.01 | 0.01 | 83 | 1007.1 |
| 20260505190819 | 55 | 288 | 1.7 | 2.6 | 0.00 | 0.01 | 0.01 | 84 | 1007.2 |
| 20260505190448 | 55 | 285 | 1.7 | 2.6 | 0.00 | 0.01 | 0.01 | 83 | 1007.2 |
| 20260505185305 | 56 | 285 | 1.7 | 4.3 | 0.00 | 0.01 | 0.01 | 82 | 1007.1 |
| 20260505184810 | 56 | 286 | 1.7 | 2.6 | 0.00 | 0.01 | 0.01 | 82 | 1007.0 |
| 20260505184302 | 57 | 288 | 1.7 | 5.2 | 0.00 | 0.01 | 0.01 | 81 | 1007.0 |
| 20260505183849 | 57 | 274 | 2.6 | 7.0 | 0.00 | 0.01 | 0.01 | 80 | 1006.9 |
| 20260505183814 | 57 | 295 | 0.9 | 6.1 | 0.00 | 0.01 | 0.01 | 81 | 1006.9 |
| 20260505182949 | 58 | 274 | 4.3 | 6.1 | 0.00 | 0.01 | 0.01 | 79 | 1006.8 |
| 20260505182944 | 59 | 262 | 4.3 | 7.8 | 0.00 | 0.01 | 0.01 | 78 | 1006.7 |
| 20260505182844 | 58 | 281 | 4.3 | 7.0 | 0.00 | 0.01 | 0.01 | 79 | 1006.8 |
| 20260505181330 | 59 | 266 | 3.5 | 7.8 | 0.00 | 0.01 | 0.01 | 77 | 1006.6 |
| 20260505180807 | 60 | 266 | 4.3 | 7.0 | 0.00 | 0.01 | 0.01 | 77 | 1006.5 |
| 20260505180319 | 60 | 274 | 2.6 | 5.2 | 0.00 | 0.01 | 0.01 | 78 | 1006.4 |
| 20260505175756 | 60 | 281 | 0.9 | 2.6 | 0.00 | 0.01 | 0.01 | 80 | 1006.5 |
| 20260505175309 | 60 | 292 | 0.9 | 2.6 | 0.01 | 0.01 | 0.01 | 81 | 1006.5 |
| 20260505175115 | 59 | 340 | 0.0 | 1.7 | 0.01 | 0.01 | 0.01 | 82 | 1006.5 |
| 20260505174832 | 59 | 333 | 0.9 | 1.7 | 0.01 | 0.01 | 0.01 | 82 | 1006.5 |
| 20260505173757 | 59 | 341 | 0.9 | 1.7 | 0.01 | 0.01 | 0.01 | 82 | 1006.5 |
| 20260505173257 | 59 | 341 | 0.0 | 2.6 | 0.01 | 0.01 | 0.01 | 83 | 1006.5 |
| 20260505172815 | 59 | 358 | 1.7 | 2.6 | 0.01 | 0.01 | 0.01 | 83 | 1006.3 |
| 20260505172254 | 59 | 244 | 0.9 | 1.7 | 0.01 | 0.01 | 0.01 | 83 | 1006.5 |
| 20260505171754 | 59 | 227 | 0.0 | 4.3 | 0.01 | 0.01 | 0.01 | 82 | 1006.6 |
| 20260505171310 | 59 | 227 | 1.7 | 4.3 | 0.01 | 0.01 | 0.01 | 80 | 1006.7 |
| 20260505170815 | 60 | 224 | 1.7 | 4.3 | 0.01 | 0.01 | 0.01 | 82 | 1006.9 |
| 20260505170328 | 60 | 223 | 2.6 | 4.3 | 0.01 | 0.01 | 0.01 | 81 | 1006.8 |
| 20260505165810 | 60 | 192 | 0.0 | 2.6 | 0.00 | 0.00 | 0.00 | 79 | 1006.9 |
| 20260505165331 | 60 | 144 | 0.0 | 1.7 | 0.00 | 0.00 | 0.00 | 76 | 1006.7 |
| 20260505165306 | 60 | 144 | 0.0 | 0.9 | 0.00 | 0.00 | 0.00 | 76 | 1006.8 |
| 20260505164249 | 60 | 224 | 0.0 | 2.6 | 0.00 | 0.00 | 0.00 | 74 | 1006.9 |
| 20260505163756 | 61 | 230 | 0.0 | 6.1 | 0.00 | 0.00 | 0.00 | 74 | 1006.9 |
| 20260505163300 | 61 | 188 | 1.7 | 7.0 | 0.00 | 0.00 | 0.00 | 72 | 1007.0 |
| 20260505162754 | 61 | 248 | 0.9 | 9.6 | 0.00 | 0.00 | 0.00 | 71 | 1006.7 |
| 20260505162243 | 62 | 237 | 5.2 | 9.6 | 0.00 | 0.00 | 0.00 | 69 | 1006.8 |
| 20260505161755 | 63 | 234 | 5.2 | 13.0 | 0.00 | 0.00 | 0.00 | 68 | 1006.8 |
| 20260505161248 | 63 | 171 | 6.1 | 13.0 | 0.00 | 0.00 | 0.00 | 65 | 1006.9 |
| 20260505161008 | 64 | 245 | 7.0 | 13.0 | 0.00 | 0.00 | 0.00 | 65 | 1006.5 |
| 20260505160807 | 63 | 255 | 7.8 | 10.4 | 0.00 | 0.00 | 0.00 | 65 | 1006.6 |
| 20260505153248 | 66 | 261 | 9.6 | 14.8 | 0.00 | 0.00 | 0.00 | 60 | 1005.7 |
| 20260505152801 | 67 | 272 | 7.0 | 15.6 | 0.00 | 0.00 | 0.00 | 59 | 1005.6 |
| 20260505152245 | 68 | 264 | 8.7 | 16.5 | 0.00 | 0.00 | 0.00 | 56 | 1005.7 |
| 20260505151744 | 69 | 266 | 10.4 | 17.4 | 0.00 | 0.00 | 0.00 | 52 | 1005.6 |
| 20260505151237 | 70 | 254 | 11.3 | 17.4 | 0.00 | 0.00 | 0.00 | 50 | 1005.5 |
| 20260505150857 | 71 | 245 | 3.5 | 7.8 | 0.00 | 0.00 | 0.00 | 43 | 1005.3 |
| 20260505150827 | 72 | 204 | 1.7 | 7.8 | 0.00 | 0.00 | 0.00 | 45 | 1005.2 |
| 20260505150741 | 71 | 305 | 6.1 | 9.6 | 0.00 | 0.00 | 0.00 | 48 | 1005.3 |
| 20260505150419 | 71 | 248 | 6.1 | 8.7 | 0.00 | 0.00 | 0.00 | 47 | 1005.3 |
| 20260505124756 | 75 | 240 | 3.5 | 6.1 | 0.00 | 0.00 | 0.00 | 39 | 1005.9 |
| 20260505124237 | 75 | 243 | 1.7 | 2.6 | 0.00 | 0.00 | 0.00 | 41 | 1005.7 |
| 20260505123737 | 75 | 141 | 0.0 | 1.7 | 0.00 | 0.00 | 0.00 | 41 | 1005.9 |
| 20260505122742 | 75 | 121 | 0.0 | 2.6 | 0.00 | 0.00 | 0.00 | 40 | 1005.9 |
| 20260505122221 | 75 | 140 | 0.0 | 2.6 | 0.00 | 0.00 | 0.00 | 39 | 1006.0 |
| 20260505121736 | 75 | 196 | 0.0 | 1.7 | 0.00 | 0.00 | 0.00 | 45 | 1005.9 |
| 20260505121242 | 74 | 193 | 0.9 | 5.2 | 0.00 | 0.00 | 0.00 | 41 | 1006.0 |
| 20260505120753 | 75 | 134 | 0.9 | 5.2 | 0.00 | 0.00 | 0.00 | 42 | 1005.9 |
| 20260505120238 | 75 | 42 | 0.9 | 7.0 | 0.00 | 0.00 | 0.00 | 40 | 1006.0 |
| 20260505115756 | 74 | 142 | 0.0 | 1.7 | 0.00 | 0.00 | 0.00 | 46 | 1006.3 |
| 20260505115724 | 75 | 298 | 0.9 | 7.0 | 0.00 | 0.00 | 0.00 | 41 | 1006.1 |
| 20260505115248 | 74 | 111 | 4.3 | 7.0 | 0.00 | 0.00 | 0.00 | 43 | 1006.1 |
| 20260505114750 | 74 | 134 | 0.0 | 1.7 | 0.00 | 0.00 | 0.00 | 45 | 1006.1 |
| 20260505114212 | 74 | 133 | 0.0 | 1.7 | 0.00 | 0.00 | 0.00 | 43 | 1006.3 |
| 20260505113807 | 74 | 131 | 0.0 | 1.7 | 0.00 | 0.00 | 0.00 | 44 | 1006.2 |
| 20260505112733 | 74 | 135 | 0.0 | 2.6 | 0.00 | 0.00 | 0.00 | 48 | 1006.5 |
| 20260505112239 | 74 | 172 | 0.0 | 4.3 | 0.00 | 0.00 | 0.00 | 49 | 1006.5 |
| 20260505111714 | 74 | 72 | 0.9 | 4.3 | 0.00 | 0.00 | 0.00 | 53 | 1006.7 |
| 20260505111213 | 74 | 62 | 0.9 | 2.6 | 0.00 | 0.00 | 0.00 | 52 | 1006.8 |
| 20260505110730 | 74 | 183 | 0.0 | 7.8 | 0.00 | 0.00 | 0.00 | 50 | 1006.9 |
| 20260505110304 | 73 | 114 | 2.6 | 7.8 | 0.00 | 0.00 | 0.00 | 51 | 1006.8 |
| 20260505101742 | 72 | 286 | 1.7 | 5.2 | 0.00 | 0.00 | 0.00 | 54 | 1007.5 |
| 20260505101213 | 71 | 261 | 2.6 | 5.2 | 0.00 | 0.00 | 0.00 | 53 | 1007.6 |
| 20260505101203 | 72 | 252 | 2.6 | 5.2 | 0.00 | 0.00 | 0.00 | 51 | 1007.5 |
| 20260505100752 | 72 | 262 | 1.7 | 5.2 | 0.00 | 0.00 | 0.00 | 55 | 1007.5 |
| 20260505095725 | 71 | 221 | 0.0 | 1.7 | 0.00 | 0.00 | 0.00 | 57 | 1007.7 |
| 20260505095221 | 71 | 221 | 0.9 | 1.7 | 0.00 | 0.00 | 0.00 | 57 | 1007.8 |
| 20260505094722 | 71 | 226 | 0.0 | 4.3 | 0.00 | 0.00 | 0.00 | 54 | 1007.8 |
| 20260505094225 | 71 | 226 | 0.9 | 4.3 | 0.00 | 0.00 | 0.00 | 52 | 1007.8 |
| 20260505093714 | 71 | 113 | 0.0 | 2.6 | 0.00 | 0.00 | 0.00 | 55 | 1007.8 |
| 20260505093225 | 71 | 124 | 0.0 | 2.6 | 0.00 | 0.00 | 0.00 | 56 | 1007.8 |
| 20260505092704 | 70 | 125 | 0.0 | 2.6 | 0.00 | 0.00 | 0.00 | 56 | 1007.9 |
| 20260505092205 | 70 | 96 | 0.9 | 2.6 | 0.00 | 0.00 | 0.00 | 58 | 1008.1 |
| 20260505091721 | 69 | 152 | 0.0 | 1.7 | 0.00 | 0.00 | 0.00 | 59 | 1008.3 |
| 20260505091204 | 69 | 192 | 0.0 | 0.9 | 0.00 | 0.00 | 0.00 | 57 | 1008.4 |
| 20260505090659 | 69 | 192 | 0.0 | 2.6 | 0.00 | 0.00 | 0.00 | 57 | 1008.4 |
| 20260505090632 | 69 | 158 | 0.0 | 5.2 | 0.00 | 0.00 | 0.00 | 57 | 1008.5 |
| 20260505090628 | 69 | 216 | 0.9 | 5.2 | 0.00 | 0.00 | 0.00 | 57 | 1008.5 |
| 20260505090623 | 68 | 216 | 0.0 | 1.7 | 0.00 | 0.00 | 0.00 | 60 | 1008.6 |
| 20260505090234 | 69 | 190 | 0.9 | 2.6 | 0.00 | 0.00 | 0.00 | 55 | 1008.4 |
| 20260505085729 | 69 | 193 | 0.9 | 2.6 | 0.00 | 0.00 | 0.00 | 57 | 1008.6 |
| 20260505085354 | 69 | 203 | 0.0 | 1.7 | 0.00 | 0.00 | 0.00 | 57 | 1008.5 |
| 20260505083140 | 68 | 223 | 0.9 | 4.3 | 0.00 | 0.00 | 0.00 | 62 | 1008.6 |
| 20260505082647 | 67 | 219 | 1.7 | 4.3 | 0.00 | 0.00 | 0.00 | 62 | 1008.6 |
| 20260505082136 | 67 | 206 | 2.6 | 4.3 | 0.00 | 0.00 | 0.00 | 63 | 1008.7 |
| 20260505081630 | 67 | 171 | 0.9 | 4.3 | 0.00 | 0.00 | 0.00 | 63 | 1008.6 |
| 20260505081135 | 67 | 213 | 0.0 | 2.6 | 0.00 | 0.00 | 0.00 | 61 | 1008.6 |
| 20260505080716 | 67 | 212 | 1.7 | 2.6 | 0.00 | 0.00 | 0.00 | 61 | 1008.7 |
| 20260505080255 | 67 | 213 | 0.0 | 4.3 | 0.00 | 0.00 | 0.00 | 61 | 1008.6 |
| 20260505075118 | 68 | 180 | 0.9 | 1.7 | 0.00 | 0.00 | 0.00 | 62 | 1008.8 |
| 20260505074626 | 68 | 317 | 0.0 | 0.9 | 0.00 | 0.00 | 0.00 | 61 | 1008.8 |
| 20260505074557 | 67 | 319 | 0.9 | 1.7 | 0.00 | 0.00 | 0.00 | 62 | 1008.7 |
| 20260505074202 | 67 | 319 | 0.0 | 1.7 | 0.00 | 0.00 | 0.00 | 63 | 1008.7 |
| 20260505073141 | 67 | 320 | 0.0 | 0.9 | 0.00 | 0.00 | 0.00 | 63 | 1008.7 |
| 20260505072619 | 67 | 319 | 0.0 | 1.7 | 0.00 | 0.00 | 0.00 | 66 | 1008.8 |
| 20260505072124 | 66 | 321 | 0.9 | 1.7 | 0.00 | 0.00 | 0.00 | 67 | 1008.8 |
| 20260505071803 | 66 | 300 | 0.0 | 0.0 | 0.00 | 0.00 | 0.00 | 67 | 1008.9 |
| 20260505071639 | 65 | 314 | 0.9 | 1.7 | 0.00 | 0.00 | 0.00 | 67 | 1008.9 |
| 20260505071159 | 66 | 306 | 0.0 | 1.7 | 0.00 | 0.00 | 0.00 | 66 | 1008.9 |
| 20260505070150 | 65 | 300 | 0.0 | 0.9 | 0.00 | 0.00 | 0.00 | 69 | 1009.0 |
| 20260505065627 | 65 | 300 | 0.0 | 0.9 | 0.00 | 0.00 | 0.00 | 70 | 1009.0 |
| 20260505065114 | 64 | 305 | 0.0 | 1.7 | 0.00 | 0.00 | 0.00 | 71 | 1009.1 |
| 20260505064704 | 63 | 296 | 0.9 | 2.6 | 0.00 | 0.00 | 0.00 | 73 | 1009.2 |
| 20260505064626 | 64 | 302 | 0.9 | 1.7 | 0.00 | 0.00 | 0.00 | 71 | 1009.1 |
| 20260505063610 | 62 | 292 | 0.0 | 2.6 | 0.00 | 0.00 | 0.00 | 74 | 1009.1 |
| 20260505063125 | 62 | 266 | 0.9 | 2.6 | 0.00 | 0.00 | 0.00 | 76 | 1009.2 |
| 20260505062605 | 60 | 274 | 0.9 | 2.6 | 0.00 | 0.00 | 0.00 | 80 | 1009.3 |
| 20260505062124 | 60 | 258 | 0.0 | 2.6 | 0.00 | 0.00 | 0.00 | 82 | 1009.3 |
| 20260505061634 | 59 | 254 | 0.0 | 1.7 | 0.00 | 0.00 | 0.00 | 84 | 1009.3 |
| 20260505061113 | 58 | 250 | 0.0 | 0.0 | 0.00 | 0.00 | 0.00 | 87 | 1009.4 |
| 20260505060605 | 57 | 250 | 0.0 | 0.9 | 0.00 | 0.00 | 0.00 | 87 | 1009.5 |
| 20260505060108 | 56 | 250 | 0.0 | 1.7 | 0.00 | 0.00 | 0.00 | 89 | 1009.4 |
| 20260505055553 | 55 | 300 | 0.0 | 0.9 | 0.00 | 0.00 | 0.00 | 91 | 1009.4 |
| 20260505054612 | 53 | 300 | 0.0 | 0.0 | 0.00 | 0.00 | 0.00 | 93 | 1009.5 |
| 20260505054105 | 51 | 305 | 0.0 | 0.0 | 0.00 | 0.00 | 0.00 | 93 | 1009.4 |
| 20260505053557 | 50 | 305 | 0.0 | 0.0 | 0.00 | 0.00 | 0.00 | 93 | 1009.3 |
| 20260505053051 | 49 | 305 | 0.0 | 0.0 | 0.00 | 0.00 | 0.00 | 93 | 1009.3 |
| 20260505052603 | 48 | 305 | 0.0 | 0.0 | 0.00 | 0.00 | 0.00 | 93 | 1009.2 |
| 20260505052128 | 48 | 305 | 0.0 | 0.0 | 0.00 | 0.00 | 0.00 | 93 | 1009.3 |
| 20260505051613 | 47 | 305 | 0.0 | 0.0 | 0.00 | 0.00 | 0.00 | 93 | 1009.3 |
| 20260505051109 | 46 | 305 | 0.0 | 0.0 | 0.00 | 0.00 | 0.00 | 92 | 1009.3 |
| 20260505050542 | 46 | 305 | 0.0 | 0.9 | 0.00 | 0.00 | 0.00 | 92 | 1009.3 |
| 20260505041507 | 44 | 305 | 0.0 | 2.6 | 0.00 | 0.00 | 0.00 | 91 | 1009.4 |
| 20260505041010 | 44 | 305 | 1.7 | 2.6 | 0.00 | 0.00 | 0.00 | 91 | 1009.5 |
| 20260505040506 | 43 | 303 | 1.7 | 1.7 | 0.00 | 0.00 | 0.00 | 91 | 1009.5 |
| 20260505040015 | 43 | 303 | 0.0 | 0.0 | 0.00 | 0.00 | 0.00 | 90 | 1009.6 |
| 20260505035521 | 43 | 303 | 0.0 | 0.0 | 0.00 | 0.00 | 0.00 | 90 | 1009.5 |
| 20260505035028 | 44 | 303 | 0.0 | 0.9 | 0.00 | 0.00 | 0.00 | 89 | 1009.5 |
| 20260505034526 | 44 | 303 | 0.0 | 0.9 | 0.00 | 0.00 | 0.00 | 89 | 1009.5 |
| 20260505034208 | 44 | 302 | 0.0 | 1.7 | 0.00 | 0.00 | 0.00 | 90 | 1009.5 |
| 20260505034154 | 44 | 302 | 0.9 | 1.7 | 0.00 | 0.00 | 0.00 | 89 | 1009.6 |
| 20260505034024 | 44 | 303 | 0.0 | 1.7 | 0.00 | 0.00 | 0.00 | 90 | 1009.4 |
| 20260505032510 | 45 | 302 | 0.0 | 1.7 | 0.00 | 0.00 | 0.00 | 89 | 1009.7 |
| 20260505032006 | 45 | 302 | 0.9 | 1.7 | 0.00 | 0.00 | 0.00 | 90 | 1009.6 |
| 20260505031515 | 45 | 302 | 0.0 | 1.7 | 0.00 | 0.00 | 0.00 | 89 | 1009.7 |
| 20260505031002 | 45 | 302 | 0.0 | 1.7 | 0.00 | 0.00 | 0.00 | 90 | 1009.8 |
| 20260505030517 | 45 | 302 | 0.9 | 1.7 | 0.00 | 0.00 | 0.00 | 89 | 1009.7 |
| 20260505025957 | 44 | 302 | 0.0 | 0.0 | 0.00 | 0.00 | 0.00 | 88 | 1009.9 |